Time;durP1;ratioP1;P1;durP2;ratioP2;P2;SDS_P1;SDS_P2;PMS_P1;PMS_P2;Temp;Humidity;BMP_temperature;BMP_pressure;BME280_temperature;BME280_humidity;BME280_pressure;Samples;Min_cycle;Max_cycle;Signal;HPM_P1;HPM_P2
2021/10/11 00:00:31;;;;;;;16.58;12.23;;;7.20;99.90;;;;;;5023916;28;20209;-82
2021/10/11 00:02:59;;;;;;;19.05;11.80;;;7.60;99.90;;;;;;5022459;28;20192;-82
2021/10/11 00:05:26;;;;;;;16.90;11.82;;;7.80;99.90;;;;;;5024250;28;20221;-81
2021/10/11 00:07:53;;;;;;;19.13;12.13;;;7.50;99.90;;;;;;5024287;28;20232;-81
2021/10/11 00:10:20;;;;;;;18.75;11.68;;;7.60;99.90;;;;;;5023839;28;20211;-81
2021/10/11 00:12:48;;;;;;;17.27;12.00;;;7.60;99.90;;;;;;5024063;28;20291;-82
2021/10/11 00:15:15;;;;;;;17.10;11.95;;;7.40;99.90;;;;;;5023686;28;20232;-81
2021/10/11 00:17:42;;;;;;;17.55;12.15;;;7.30;99.90;;;;;;5024534;28;20215;-81
2021/10/11 00:20:12;;;;;;;17.30;11.77;;;7.20;99.90;;;;;;5026058;28;20268;-81
2021/10/11 00:22:39;;;;;;;17.27;11.80;;;7.50;99.90;;;;;;5024080;28;20703;-81
2021/10/11 00:25:07;;;;;;;20.77;12.20;;;7.40;99.90;;;;;;5023245;28;20220;-81
2021/10/11 00:27:35;;;;;;;17.83;12.02;;;7.70;99.90;;;;;;5003941;28;20673;-80
2021/10/11 00:30:04;;;;;;;17.63;11.25;;;7.30;99.90;;;;;;5010534;28;20272;-81
2021/10/11 00:32:31;;;;;;;19.42;11.57;;;7.10;99.90;;;;;;5023202;28;20661;-81
2021/10/11 00:34:57;;;;;;;17.13;11.60;;;7.10;99.90;;;;;;5020213;28;20632;-81
2021/10/11 00:37:26;;;;;;;15.15;10.93;;;7.00;99.90;;;;;;5022377;28;20291;-81
2021/10/11 00:39:52;;;;;;;21.80;13.52;;;7.10;99.90;;;;;;5023209;28;20228;-80
2021/10/11 00:42:19;;;;;;;16.00;11.20;;;7.10;99.90;;;;;;5013663;28;20227;-81
2021/10/11 00:44:46;;;;;;;17.85;11.95;;;6.90;99.90;;;;;;5022867;28;20203;-81
2021/10/11 00:47:13;;;;;;;21.35;13.68;;;7.00;99.90;;;;;;5033431;28;20263;-80
2021/10/11 00:49:40;;;;;;;19.48;12.18;;;7.10;99.90;;;;;;5031566;28;20232;-80
2021/10/11 00:52:06;;;;;;;17.20;12.57;;;7.20;99.90;;;;;;5028181;28;20270;-82
2021/10/11 00:54:35;;;;;;;19.42;12.25;;;7.10;99.90;;;;;;5024619;28;20229;-81
2021/10/11 00:57:02;;;;;;;16.92;11.82;;;7.00;99.90;;;;;;5025023;28;20284;-81
2021/10/11 00:59:29;;;;;;;20.05;12.18;;;6.90;99.90;;;;;;5031753;28;20208;-80
2021/10/11 01:01:55;;;;;;;21.95;12.93;;;7.10;99.90;;;;;;5025102;28;20196;-80
2021/10/11 01:04:22;;;;;;;17.77;11.88;;;7.30;99.90;;;;;;5023704;28;20306;-81
2021/10/11 01:06:49;;;;;;;17.98;12.73;;;7.30;99.90;;;;;;5023285;28;20317;-81
2021/10/11 01:09:16;;;;;;;16.48;11.00;;;7.20;99.90;;;;;;5023221;28;20202;-81
2021/10/11 01:11:47;;;;;;;17.58;12.40;;;7.20;99.90;;;;;;5023306;28;20294;-81
2021/10/11 01:14:14;;;;;;;14.73;11.57;;;7.10;99.90;;;;;;5026146;28;20212;-80
2021/10/11 01:16:41;;;;;;;19.60;11.82;;;7.00;99.90;;;;;;5010268;28;20211;-80
2021/10/11 01:19:08;;;;;;;17.25;12.18;;;7.10;99.90;;;;;;5034862;28;20224;-80
2021/10/11 01:21:36;;;;;;;16.45;11.55;;;7.10;99.90;;;;;;5036603;28;20693;-80
2021/10/11 01:24:03;;;;;;;21.38;14.07;;;6.90;99.90;;;;;;5022801;28;20276;-81
2021/10/11 01:26:37;;;;;;;19.85;13.70;;;7.00;99.90;;;;;;5014243;28;20216;-79
2021/10/11 01:29:05;;;;;;;20.88;12.65;;;6.90;99.90;;;;;;5027925;28;20666;-81
2021/10/11 01:31:33;;;;;;;18.83;13.00;;;7.00;99.90;;;;;;5027277;28;20288;-81
2021/10/11 01:34:00;;;;;;;21.23;13.35;;;7.10;99.90;;;;;;5026983;28;20319;-80
2021/10/11 01:36:27;;;;;;;20.83;13.43;;;6.90;99.90;;;;;;5028473;28;20375;-81
2021/10/11 01:38:56;;;;;;;19.77;13.32;;;7.00;99.90;;;;;;5027859;28;20300;-79
2021/10/11 01:41:24;;;;;;;19.63;12.77;;;7.20;99.90;;;;;;5020365;28;20213;-81
2021/10/11 01:43:51;;;;;;;17.63;12.95;;;7.00;99.90;;;;;;5027548;28;20215;-80
2021/10/11 01:46:18;;;;;;;17.33;13.25;;;7.10;99.90;;;;;;5022109;28;20245;-80
2021/10/11 01:48:46;;;;;;;20.90;13.55;;;7.10;99.90;;;;;;5018903;28;20201;-81
2021/10/11 01:51:13;;;;;;;26.38;15.07;;;7.30;99.90;;;;;;5023975;28;20588;-80
2021/10/11 01:53:40;;;;;;;21.90;14.93;;;7.10;99.90;;;;;;5023736;28;20279;-80
2021/10/11 01:56:08;;;;;;;19.55;13.98;;;7.20;99.90;;;;;;5021867;28;20712;-80
2021/10/11 01:58:35;;;;;;;20.08;16.10;;;7.20;99.90;;;;;;5024951;28;20624;-79
2021/10/11 02:01:02;;;;;;;21.05;14.80;;;7.00;99.90;;;;;;5026179;28;20208;-81
2021/10/11 02:03:29;;;;;;;20.67;14.13;;;7.20;99.90;;;;;;5027893;28;20227;-81
2021/10/11 02:05:56;;;;;;;23.15;14.38;;;7.00;99.90;;;;;;5026592;28;20221;-82
2021/10/11 02:08:23;;;;;;;20.00;15.05;;;7.10;99.90;;;;;;5026544;28;20276;-81
2021/10/11 02:10:49;;;;;;;24.17;16.58;;;6.90;99.90;;;;;;5025783;28;20286;-81
2021/10/11 02:13:18;;;;;;;18.40;12.82;;;7.10;99.90;;;;;;5020040;28;20650;-80
2021/10/11 02:15:45;;;;;;;17.90;13.20;;;7.00;99.90;;;;;;5019559;28;20221;-81
2021/10/11 02:18:12;;;;;;;18.80;13.70;;;7.10;99.90;;;;;;5026172;28;20208;-81
2021/10/11 02:20:39;;;;;;;18.90;13.32;;;6.90;99.90;;;;;;5026717;28;20209;-81
2021/10/11 02:23:06;;;;;;;19.70;13.20;;;6.90;99.90;;;;;;5010457;28;20257;-80
2021/10/11 02:25:33;;;;;;;21.10;13.60;;;6.80;99.90;;;;;;5026725;28;20302;-79
2021/10/11 02:28:00;;;;;;;17.13;13.15;;;6.80;99.90;;;;;;5026650;28;20215;-80
2021/10/11 02:30:28;;;;;;;19.98;13.68;;;6.90;99.90;;;;;;5015753;28;20241;-81
2021/10/11 02:32:55;;;;;;;18.17;13.10;;;6.80;99.90;;;;;;5007263;28;20265;-80
2021/10/11 02:35:22;;;;;;;17.55;13.00;;;7.00;99.90;;;;;;5019698;28;20247;-82
2021/10/11 02:37:49;;;;;;;18.95;13.15;;;7.00;99.90;;;;;;5025919;28;20303;-80
2021/10/11 02:40:16;;;;;;;16.88;12.27;;;6.90;99.90;;;;;;5026295;28;20720;-82
2021/10/11 02:42:43;;;;;;;18.70;13.30;;;6.90;99.90;;;;;;5026664;28;20235;-82
2021/10/11 02:45:10;;;;;;;18.40;14.40;;;6.70;99.90;;;;;;5030218;28;20244;-78
2021/10/11 02:47:39;;;;;;;18.15;13.70;;;6.70;99.90;;;;;;5028077;28;20287;-82
2021/10/11 02:50:07;;;;;;;18.15;12.73;;;6.80;99.90;;;;;;5031201;28;20343;-79
2021/10/11 02:52:34;;;;;;;19.45;13.65;;;6.80;99.90;;;;;;5032831;28;20204;-81
2021/10/11 02:55:01;;;;;;;17.38;12.88;;;6.80;99.90;;;;;;5072870;23;20365;-78
2021/10/11 02:57:28;;;;;;;15.90;12.10;;;6.80;99.90;;;;;;5018194;28;20201;-78
2021/10/11 02:59:55;;;;;;;19.33;13.63;;;6.60;99.90;;;;;;5017350;28;20210;-78
2021/10/11 03:02:21;;;;;;;17.42;12.43;;;6.70;99.90;;;;;;5014990;28;20208;-79
2021/10/11 03:04:50;;;;;;;17.45;12.60;;;6.50;99.90;;;;;;5002737;28;20712;-78
2021/10/11 03:07:17;;;;;;;17.30;12.07;;;6.50;99.90;;;;;;5009829;28;20204;-79
2021/10/11 03:09:44;;;;;;;21.52;14.52;;;6.60;99.90;;;;;;5021327;28;20204;-78
2021/10/11 03:12:11;;;;;;;17.50;12.52;;;6.70;99.90;;;;;;5018489;28;20204;-78
2021/10/11 03:14:38;;;;;;;17.83;13.30;;;6.30;99.90;;;;;;5016990;28;20224;-78
2021/10/11 03:17:05;;;;;;;18.13;12.57;;;6.60;99.90;;;;;;5016015;28;20232;-79
2021/10/11 03:19:32;;;;;;;18.15;12.95;;;6.50;99.90;;;;;;5015221;28;20292;-77
2021/10/11 03:22:01;;;;;;;15.45;12.30;;;6.60;99.90;;;;;;5015495;28;20744;-77
2021/10/11 03:24:28;;;;;;;19.10;12.10;;;6.90;99.90;;;;;;5016215;28;20189;-77
2021/10/11 03:26:54;;;;;;;18.80;12.90;;;6.80;99.90;;;;;;5016607;28;20217;-78
2021/10/11 03:29:21;;;;;;;16.48;12.00;;;6.80;99.90;;;;;;5016875;28;20213;-79
2021/10/11 03:31:48;;;;;;;21.08;13.00;;;6.80;99.90;;;;;;5015011;28;20201;-78
2021/10/11 03:34:15;;;;;;;18.33;12.88;;;6.70;99.90;;;;;;4996638;28;20228;-78
2021/10/11 03:36:42;;;;;;;16.23;12.80;;;6.60;99.90;;;;;;5005630;28;20711;-78
2021/10/11 03:39:10;;;;;;;19.75;14.00;;;6.50;99.90;;;;;;5018769;28;20208;-78
2021/10/11 03:41:37;;;;;;;20.83;13.30;;;6.40;99.90;;;;;;5017435;28;20564;-77
2021/10/11 03:44:05;;;;;;;22.42;13.15;;;6.70;99.90;;;;;;5014380;28;20287;-77
2021/10/11 03:46:32;;;;;;;21.52;14.20;;;6.40;99.90;;;;;;5014771;28;20231;-77
2021/10/11 03:48:59;;;;;;;21.50;13.95;;;6.40;99.90;;;;;;5015202;28;20291;-78
2021/10/11 03:51:26;;;;;;;19.13;13.80;;;6.60;99.90;;;;;;5015122;28;20212;-77
2021/10/11 03:53:53;;;;;;;18.58;13.60;;;6.50;99.90;;;;;;5017147;28;20198;-78
2021/10/11 03:56:22;;;;;;;17.42;13.32;;;6.50;99.90;;;;;;5017903;28;20297;-78
2021/10/11 03:58:49;;;;;;;20.45;14.93;;;6.40;99.90;;;;;;5015845;28;20201;-79
2021/10/11 04:01:16;;;;;;;17.73;14.27;;;6.50;99.90;;;;;;5017059;28;20211;-79
2021/10/11 04:03:43;;;;;;;19.10;14.45;;;6.50;99.90;;;;;;5016925;28;20208;-79
2021/10/11 04:06:10;;;;;;;20.85;14.05;;;6.60;99.90;;;;;;5017468;28;20315;-79
2021/10/11 04:08:39;;;;;;;20.92;14.13;;;6.70;99.90;;;;;;5017807;28;20205;-79
2021/10/11 04:11:09;;;;;;;20.98;14.52;;;6.40;99.90;;;;;;5017929;28;20208;-79
2021/10/11 04:13:39;;;;;;;20.45;14.02;;;6.70;99.90;;;;;;5015952;28;20205;-79
2021/10/11 04:16:06;;;;;;;21.60;14.13;;;6.60;99.90;;;;;;5016159;28;20612;-79
2021/10/11 04:18:33;;;;;;;20.90;13.40;;;6.90;99.90;;;;;;5015289;28;20205;-79
2021/10/11 04:21:00;;;;;;;19.23;13.13;;;6.70;99.90;;;;;;5016245;28;20201;-79
2021/10/11 04:23:28;;;;;;;20.30;14.48;;;6.60;99.90;;;;;;5014833;28;20205;-79
2021/10/11 04:25:56;;;;;;;21.52;15.05;;;6.60;99.90;;;;;;5023552;28;20587;-77
2021/10/11 04:28:23;;;;;;;20.95;15.13;;;6.80;99.90;;;;;;5027332;28;20283;-78
2021/10/11 04:30:51;;;;;;;22.00;14.23;;;6.80;99.90;;;;;;5020128;28;20287;-78
2021/10/11 04:33:21;;;;;;;22.88;15.00;;;6.60;99.90;;;;;;5023605;28;20273;-78
2021/10/11 04:35:48;;;;;;;22.55;15.43;;;6.50;99.90;;;;;;5025122;28;20231;-76
2021/10/11 04:38:14;;;;;;;21.40;13.88;;;6.70;99.90;;;;;;5015618;28;20205;-79
2021/10/11 04:40:42;;;;;;;20.25;14.15;;;6.50;99.90;;;;;;5016450;28;20201;-79
2021/10/11 04:43:09;;;;;;;23.40;15.40;;;6.70;99.90;;;;;;5016232;28;20577;-78
2021/10/11 04:45:35;;;;;;;19.85;14.63;;;6.70;99.90;;;;;;5016464;28;20224;-78
2021/10/11 04:48:06;;;;;;;24.38;15.18;;;6.50;99.90;;;;;;5024092;28;20207;-78
2021/10/11 04:50:34;;;;;;;21.10;14.70;;;6.70;99.90;;;;;;5017527;28;20208;-78
2021/10/11 04:53:01;;;;;;;18.98;14.55;;;6.50;99.90;;;;;;5016224;28;20207;-79
2021/10/11 04:55:29;;;;;;;19.02;14.70;;;6.70;99.90;;;;;;5015909;28;20633;-79
2021/10/11 04:57:57;;;;;;;19.80;14.50;;;6.60;99.90;;;;;;5015821;28;20204;-79
2021/10/11 05:00:24;;;;;;;21.85;16.08;;;6.50;99.90;;;;;;5015830;28;20201;-79
2021/10/11 05:02:51;;;;;;;21.80;15.18;;;6.60;99.90;;;;;;5016751;28;20205;-79
2021/10/11 05:05:19;;;;;;;23.15;15.80;;;6.50;99.90;;;;;;5015293;28;20736;-79
2021/10/11 05:07:46;;;;;;;19.88;14.68;;;6.40;99.90;;;;;;5017437;28;20204;-78
2021/10/11 05:10:13;;;;;;;21.33;15.50;;;6.70;99.90;;;;;;5016895;28;20219;-79
2021/10/11 05:12:40;;;;;;;21.48;14.93;;;6.70;99.90;;;;;;5016389;28;20204;-79
2021/10/11 05:15:08;;;;;;;27.13;16.23;;;6.50;99.90;;;;;;5015892;28;20236;-78
2021/10/11 05:17:34;;;;;;;20.42;14.77;;;6.60;99.90;;;;;;5014297;28;20200;-78
2021/10/11 05:20:02;;;;;;;23.33;16.33;;;6.60;99.90;;;;;;4996427;28;20607;-78
2021/10/11 05:22:31;;;;;;;22.58;15.90;;;6.40;99.90;;;;;;5017170;28;20243;-78
2021/10/11 05:24:58;;;;;;;20.63;16.02;;;6.30;99.90;;;;;;5018100;28;20286;-78
2021/10/11 05:27:25;;;;;;;22.60;15.77;;;6.40;99.90;;;;;;5015789;28;20199;-78
2021/10/11 05:29:52;;;;;;;20.75;15.70;;;6.30;99.90;;;;;;5014929;28;20211;-79
2021/10/11 05:32:19;;;;;;;26.02;16.15;;;6.70;99.90;;;;;;5006860;28;20207;-79
2021/10/11 05:34:46;;;;;;;19.55;15.60;;;6.60;99.90;;;;;;5015362;28;20223;-79
2021/10/11 05:37:14;;;;;;;26.63;16.95;;;6.50;99.90;;;;;;5017033;28;20681;-79
2021/10/11 05:39:42;;;;;;;28.20;14.93;;;6.50;99.90;;;;;;5016200;28;20732;-78
2021/10/11 05:42:09;;;;;;;22.08;16.45;;;6.60;99.90;;;;;;5015190;28;20204;-79
2021/10/11 05:44:36;;;;;;;20.17;14.82;;;6.70;99.90;;;;;;5015534;28;20251;-79
2021/10/11 05:47:03;;;;;;;20.20;15.65;;;6.90;99.90;;;;;;5014772;28;20339;-79
2021/10/11 05:49:30;;;;;;;28.23;15.65;;;7.00;99.90;;;;;;5016110;28;20211;-78
2021/10/11 05:51:57;;;;;;;22.55;15.90;;;7.00;99.90;;;;;;5017585;28;20291;-79
2021/10/11 05:54:23;;;;;;;24.90;16.60;;;6.80;99.90;;;;;;5016960;28;20296;-78
2021/10/11 05:56:52;;;;;;;24.63;15.23;;;6.80;99.90;;;;;;5015754;28;20600;-78
2021/10/11 05:59:18;;;;;;;22.52;15.45;;;6.70;99.90;;;;;;5015042;28;20209;-78
2021/10/11 06:01:45;;;;;;;23.15;15.75;;;6.50;99.90;;;;;;5014195;28;20632;-78
2021/10/11 06:04:12;;;;;;;21.40;15.20;;;6.60;99.90;;;;;;5018676;28;20211;-78
2021/10/11 06:06:39;;;;;;;21.55;14.90;;;6.50;99.90;;;;;;5018279;28;20731;-79
2021/10/11 06:09:06;;;;;;;22.23;15.63;;;6.60;99.90;;;;;;5020982;28;20196;-80
2021/10/11 06:11:33;;;;;;;22.60;16.33;;;6.60;99.90;;;;;;5020199;28;20686;-77
2021/10/11 06:14:01;;;;;;;21.48;14.88;;;6.60;99.90;;;;;;5015413;28;20208;-77
2021/10/11 06:16:28;;;;;;;23.65;15.77;;;6.80;99.90;;;;;;5015951;28;20314;-77
2021/10/11 06:18:55;;;;;;;25.13;15.27;;;6.70;99.90;;;;;;5017555;28;20215;-78
2021/10/11 06:21:21;;;;;;;22.98;16.90;;;6.50;99.90;;;;;;5016476;28;20584;-77
2021/10/11 06:23:51;;;;;;;24.58;14.00;;;6.70;99.90;;;;;;5016850;28;20209;-77
2021/10/11 06:26:18;;;;;;;28.50;16.15;;;6.70;99.90;;;;;;5016452;28;20230;-77
2021/10/11 06:28:44;;;;;;;22.90;14.55;;;6.70;99.90;;;;;;4999415;28;20296;-77
2021/10/11 06:31:13;;;;;;;26.67;16.75;;;6.90;99.90;;;;;;5010780;28;20205;-76
2021/10/11 06:33:39;;;;;;;27.42;16.13;;;6.80;99.90;;;;;;5015004;28;20215;-77
2021/10/11 06:36:06;;;;;;;26.00;15.35;;;6.70;99.90;;;;;;5016747;28;20229;-79
2021/10/11 06:38:35;;;;;;;22.88;15.88;;;6.90;99.90;;;;;;5018201;28;20217;-79
2021/10/11 06:41:02;;;;;;;23.15;15.57;;;6.90;99.90;;;;;;5016789;28;20736;-79
2021/10/11 06:43:29;;;;;;;24.02;16.63;;;6.90;99.90;;;;;;5020120;28;20267;-80
2021/10/11 06:45:56;;;;;;;23.30;15.63;;;6.80;99.90;;;;;;5019211;28;20227;-80
2021/10/11 06:48:24;;;;;;;32.13;17.02;;;6.90;99.90;;;;;;5000279;28;20598;-80
2021/10/11 06:50:51;;;;;;;21.00;15.48;;;6.80;99.90;;;;;;5019730;28;20197;-79
2021/10/11 06:53:18;;;;;;;23.40;16.73;;;6.90;99.90;;;;;;5019419;28;20244;-85
2021/10/11 06:55:45;;;;;;;22.63;16.05;;;7.10;99.90;;;;;;5011376;28;20294;-82
2021/10/11 06:58:12;;;;;;;22.13;16.13;;;6.90;99.90;;;;;;5016797;28;20244;-84
2021/10/11 07:00:39;;;;;;;26.70;17.63;;;6.90;99.90;;;;;;5028672;28;20284;-85
2021/10/11 07:03:06;;;;;;;24.17;16.35;;;7.30;99.90;;;;;;5022413;28;20229;-79
2021/10/11 07:05:35;;;;;;;23.02;16.48;;;7.30;99.90;;;;;;5021657;28;20311;-79
2021/10/11 07:08:08;;;;;;;21.33;14.95;;;7.40;99.90;;;;;;5018621;28;20211;-82
2021/10/11 07:10:35;;;;;;;22.77;15.95;;;7.30;99.90;;;;;;5009090;28;20612;-80
2021/10/11 07:13:03;;;;;;;22.33;15.65;;;7.50;99.90;;;;;;5017473;28;20208;-81
2021/10/11 07:15:30;;;;;;;22.50;17.45;;;7.70;99.90;;;;;;5017877;28;20261;-79
2021/10/11 07:17:57;;;;;;;22.17;15.25;;;7.90;99.90;;;;;;5017176;28;20549;-81
2021/10/11 07:20:24;;;;;;;21.57;15.43;;;7.50;99.90;;;;;;5019327;28;20216;-81
2021/10/11 07:22:53;;;;;;;22.10;15.60;;;7.80;99.90;;;;;;5020970;28;20453;-81
2021/10/11 07:25:21;;;;;;;27.30;16.53;;;8.00;99.90;;;;;;5023006;28;20471;-80
2021/10/11 07:27:47;;;;;;;25.37;16.50;;;7.90;99.90;;;;;;5018327;28;20967;-80
2021/10/11 07:30:14;;;;;;;26.13;16.97;;;8.30;99.90;;;;;;5019658;28;20427;-79
2021/10/11 07:32:41;;;;;;;25.20;15.70;;;8.40;99.90;;;;;;5029717;28;20427;-78
2021/10/11 07:35:08;;;;;;;24.43;16.63;;;8.60;99.90;;;;;;5031799;28;20496;-80
2021/10/11 07:37:35;;;;;;;23.15;16.45;;;8.70;99.90;;;;;;5033102;28;20488;-79
2021/10/11 07:40:03;;;;;;;22.57;15.43;;;8.80;99.90;;;;;;5032848;28;20194;-79
2021/10/11 07:42:30;;;;;;;21.70;16.00;;;8.90;99.90;;;;;;5028304;28;20815;-80
2021/10/11 07:44:57;;;;;;;23.27;17.73;;;9.10;99.90;;;;;;5022606;28;20492;-80
2021/10/11 07:47:24;;;;;;;25.10;15.33;;;9.30;99.90;;;;;;5021538;28;20521;-80
2021/10/11 07:49:51;;;;;;;26.83;16.43;;;9.40;99.90;;;;;;5022290;28;20450;-79
2021/10/11 07:52:18;;;;;;;22.13;16.50;;;9.50;99.90;;;;;;5024676;28;20506;-81
2021/10/11 07:54:45;;;;;;;19.07;15.07;;;9.60;99.90;;;;;;5024304;28;20444;-80
2021/10/11 07:57:13;;;;;;;21.70;15.90;;;9.70;99.90;;;;;;5005501;28;20496;-81
2021/10/11 07:59:40;;;;;;;21.37;15.63;;;9.80;99.90;;;;;;5014464;28;20823;-79
2021/10/11 08:02:07;;;;;;;20.20;14.00;;;9.90;99.90;;;;;;5015104;28;20476;-80
2021/10/11 08:04:34;;;;;;;18.47;13.83;;;9.90;99.90;;;;;;5021361;28;20453;-86
2021/10/11 08:07:01;;;;;;;23.97;16.43;;;10.20;99.90;;;;;;5023065;28;20868;-87
2021/10/11 08:09:27;;;;;;;20.70;14.70;;;10.10;99.90;;;;;;5022832;28;20453;-81
2021/10/11 08:11:54;;;;;;;20.27;14.17;;;10.10;99.90;;;;;;5021361;28;20428;-82
2021/10/11 08:14:23;;;;;;;26.40;17.30;;;10.00;99.90;;;;;;5018378;28;21057;-81
2021/10/11 08:16:49;;;;;;;22.53;15.60;;;10.20;99.90;;;;;;5022858;28;20536;-81
2021/10/11 08:19:16;;;;;;;24.10;15.93;;;10.40;99.90;;;;;;5026032;28;20446;-82
2021/10/11 08:21:43;;;;;;;24.93;15.80;;;10.40;99.90;;;;;;5024853;28;20437;-80
2021/10/11 08:24:12;;;;;;;23.93;16.80;;;10.40;99.90;;;;;;5024407;28;20481;-80
2021/10/11 08:26:39;;;;;;;20.70;16.27;;;10.50;99.90;;;;;;5023112;28;20451;-80
2021/10/11 08:29:05;;;;;;;19.70;16.10;;;10.50;99.90;;;;;;5003742;28;20444;-81
2021/10/11 08:31:34;;;;;;;22.23;15.53;;;10.50;99.90;;;;;;5020624;28;20518;-79
2021/10/11 08:34:01;;;;;;;23.87;16.73;;;10.60;99.90;;;;;;5021981;28;20442;-81
2021/10/11 08:36:28;;;;;;;20.17;15.63;;;10.50;99.90;;;;;;5023919;28;20503;-80
2021/10/11 08:38:55;;;;;;;23.00;15.67;;;10.50;99.90;;;;;;5022993;28;20873;-81
2021/10/11 08:41:22;;;;;;;26.17;18.03;;;10.50;99.90;;;;;;5015736;28;20986;-81
2021/10/11 08:43:49;;;;;;;21.50;15.47;;;10.50;99.90;;;;;;5003810;28;20537;-81
2021/10/11 08:46:16;;;;;;;24.87;16.57;;;10.70;99.90;;;;;;5002963;28;20534;-82
2021/10/11 08:48:44;;;;;;;23.60;17.10;;;10.70;99.90;;;;;;5005140;28;20462;-80
2021/10/11 08:51:11;;;;;;;24.47;16.20;;;10.80;99.90;;;;;;5020610;28;20436;-80
2021/10/11 08:53:38;;;;;;;24.40;15.97;;;10.70;99.90;;;;;;5021708;28;20479;-81
2021/10/11 08:56:05;;;;;;;19.10;14.13;;;10.70;99.90;;;;;;5020357;28;20516;-81
2021/10/11 08:58:42;;;;;;;25.47;16.57;;;10.80;99.90;;;;;;5021691;28;20533;-81
2021/10/11 09:01:09;;;;;;;24.60;15.20;;;10.80;99.90;;;;;;5021534;28;20449;-80
2021/10/11 09:03:36;;;;;;;21.23;16.00;;;10.90;99.90;;;;;;5018444;28;20537;-80
2021/10/11 09:06:09;;;;;;;23.43;16.60;;;11.10;99.90;;;;;;5022599;28;20474;-81
2021/10/11 09:08:37;;;;;;;18.97;15.83;;;11.20;99.90;;;;;;5004769;28;20419;-81
2021/10/11 09:11:06;;;;;;;24.40;15.80;;;11.40;99.90;;;;;;5020152;28;20799;-81
2021/10/11 09:13:39;;;;;;;20.10;15.50;;;11.50;99.90;;;;;;5023598;28;20508;-81
2021/10/11 09:16:08;;;;;;;22.57;16.20;;;11.50;99.90;;;;;;5016895;28;21025;-81
2021/10/11 09:18:37;;;;;;;20.37;16.47;;;11.50;99.90;;;;;;5023905;28;20458;-81
2021/10/11 09:21:04;;;;;;;27.20;17.17;;;11.50;99.90;;;;;;5020878;28;20490;-80
2021/10/11 09:23:33;;;;;;;21.40;16.47;;;11.60;99.90;;;;;;5006488;28;20490;-81
2021/10/11 09:26:00;;;;;;;19.70;14.97;;;11.70;99.90;;;;;;5003927;28;20480;-81
2021/10/11 09:28:28;;;;;;;20.20;14.17;;;11.90;99.90;;;;;;5017074;28;20450;-82
2021/10/11 09:30:55;;;;;;;30.60;17.30;;;12.00;99.90;;;;;;5020430;28;20849;-81
2021/10/11 09:33:25;;;;;;;24.73;17.60;;;12.00;99.90;;;;;;5017683;28;20493;-82
2021/10/11 09:35:54;;;;;;;35.57;16.63;;;11.90;99.90;;;;;;5021603;28;20477;-85
2021/10/11 09:38:22;;;;;;;26.90;15.90;;;11.90;99.90;;;;;;5023148;28;20518;-81
2021/10/11 09:40:52;;;;;;;22.17;17.37;;;11.90;99.90;;;;;;5019497;28;20462;-79
2021/10/11 09:43:21;;;;;;;21.43;16.63;;;11.80;99.90;;;;;;5020100;28;20458;-79
2021/10/11 09:45:48;;;;;;;22.73;18.20;;;12.00;99.90;;;;;;5024469;28;20481;-78
2021/10/11 09:48:15;;;;;;;35.77;18.30;;;12.00;99.90;;;;;;5019585;28;20452;-80
2021/10/11 09:50:43;;;;;;;19.43;16.10;;;12.00;99.90;;;;;;5026020;28;20455;-79
2021/10/11 09:53:14;;;;;;;24.13;17.17;;;12.10;99.90;;;;;;5022404;28;20429;-79
2021/10/11 09:55:41;;;;;;;22.10;15.90;;;12.30;99.90;;;;;;5011263;28;20485;-78
2021/10/11 09:58:10;;;;;;;24.60;15.97;;;12.50;99.90;;;;;;5021846;28;20469;-79
2021/10/11 10:00:38;;;;;;;20.03;14.47;;;12.60;99.90;;;;;;5018644;28;20926;-80
2021/10/11 10:03:05;;;;;;;20.63;15.17;;;12.50;99.90;;;;;;5021368;28;20432;-81
2021/10/11 10:05:35;;;;;;;23.17;16.50;;;12.40;99.90;;;;;;5022657;28;20449;-80
2021/10/11 10:08:07;;;;;;;24.63;16.77;;;12.30;99.90;;;;;;5022277;28;20512;-82
2021/10/11 10:10:35;;;;;;;20.07;14.90;;;12.30;99.90;;;;;;5014507;28;20443;-80
2021/10/11 10:13:13;;;;;;;21.70;16.97;;;12.40;99.90;;;;;;5022623;28;20440;-80
2021/10/11 10:15:42;;;;;;;21.43;15.00;;;12.40;99.90;;;;;;5015926;28;20545;-80
2021/10/11 10:18:11;;;;;;;20.70;14.60;;;12.40;99.90;;;;;;5023612;28;20612;-80
2021/10/11 10:20:50;;;;;;;25.60;16.67;;;12.50;99.90;;;;;;5023152;28;20455;-81
2021/10/11 10:23:23;;;;;;;23.57;16.57;;;12.70;99.90;;;;;;5023806;28;20446;-82
2021/10/11 10:25:50;;;;;;;21.13;15.23;;;12.80;99.90;;;;;;5025190;28;20882;-81
2021/10/11 10:28:17;;;;;;;18.60;15.10;;;13.00;99.90;;;;;;5015766;28;20446;-81
2021/10/11 10:30:56;;;;;;;22.43;15.60;;;13.00;99.90;;;;;;5024373;28;20454;-81
2021/10/11 10:33:34;;;;;;;23.90;16.43;;;13.10;99.90;;;;;;5022822;28;20500;-82
2021/10/11 10:36:02;;;;;;;18.63;14.40;;;13.10;99.90;;;;;;5026290;28;20474;-80
2021/10/11 10:38:29;;;;;;;24.50;16.40;;;13.20;99.90;;;;;;5030288;28;20456;-80
2021/10/11 10:40:56;;;;;;;21.77;16.10;;;13.20;99.90;;;;;;5044956;28;20416;-80
2021/10/11 10:43:23;;;;;;;22.77;16.30;;;13.30;99.90;;;;;;5033673;28;20510;-79
2021/10/11 10:45:53;;;;;;;23.33;15.53;;;13.40;99.90;;;;;;5009672;28;20442;-81
2021/10/11 10:48:22;;;;;;;21.47;15.97;;;13.50;99.90;;;;;;5022698;28;20422;-79
2021/10/11 10:50:50;;;;;;;22.63;16.50;;;13.60;99.90;;;;;;5030844;28;20465;-79
2021/10/11 10:53:18;;;;;;;24.70;17.37;;;13.70;99.90;;;;;;5026657;28;20435;-82
2021/10/11 10:55:46;;;;;;;23.77;16.33;;;13.80;99.90;;;;;;5026201;28;20552;-80
2021/10/11 10:58:15;;;;;;;22.77;16.63;;;13.80;99.90;;;;;;5025831;28;21052;-80
2021/10/11 11:00:42;;;;;;;23.37;16.67;;;14.00;99.90;;;;;;5032632;28;20436;-80
2021/10/11 11:03:13;;;;;;;23.90;16.30;;;13.80;99.90;;;;;;5030574;28;20507;-80
2021/10/11 11:05:42;;;;;;;21.53;16.03;;;13.80;99.90;;;;;;5025870;28;20976;-81
2021/10/11 11:08:09;;;;;;;21.67;16.00;;;13.80;99.90;;;;;;5026871;28;20450;-80
2021/10/11 11:10:38;;;;;;;25.43;16.67;;;13.80;99.90;;;;;;5025929;28;20429;-81
2021/10/11 11:13:08;;;;;;;23.50;16.13;;;13.90;99.90;;;;;;5025574;28;20489;-78
2021/10/11 11:15:36;;;;;;;23.87;15.93;;;14.00;99.90;;;;;;5026697;28;20534;-82
2021/10/11 11:18:05;;;;;;;25.10;18.30;;;14.20;99.90;;;;;;5027009;28;20451;-80
2021/10/11 11:20:36;;;;;;;24.87;18.93;;;14.40;99.90;;;;;;5021764;28;20426;-81
2021/10/11 11:23:05;;;;;;;23.60;16.17;;;14.40;99.90;;;;;;5018242;28;20453;-81
2021/10/11 11:25:33;;;;;;;18.90;14.87;;;14.40;99.90;;;;;;5026451;28;20451;-79
2021/10/11 11:28:02;;;;;;;20.90;14.17;;;14.30;99.90;;;;;;5024294;28;20460;-79
2021/10/11 11:30:29;;;;;;;20.70;15.00;;;14.40;99.90;;;;;;5023443;28;20440;-79
2021/10/11 11:32:58;;;;;;;19.10;15.70;;;14.20;99.90;;;;;;5021830;28;20492;-80
2021/10/11 11:35:27;;;;;;;19.30;14.30;;;13.90;99.90;;;;;;5021467;28;20516;-79
2021/10/11 11:37:57;;;;;;;22.17;13.20;;;14.10;99.90;;;;;;5018488;28;20457;-80
2021/10/11 11:40:28;;;;;;;18.90;12.57;;;14.10;99.90;;;;;;5019829;28;20428;-81
2021/10/11 11:42:56;;;;;;;17.47;13.20;;;14.10;99.90;;;;;;5021720;28;20436;-81
2021/10/11 11:45:35;;;;;;;19.70;13.20;;;14.00;99.90;;;;;;5021829;28;20972;-83
2021/10/11 11:48:05;;;;;;;17.43;12.30;;;14.00;99.90;;;;;;5021912;28;20421;-82
2021/10/11 11:50:32;;;;;;;23.00;12.90;;;13.90;99.90;;;;;;5020029;28;20425;-79
2021/10/11 11:53:02;;;;;;;19.73;14.30;;;14.10;99.90;;;;;;5017394;28;20515;-80
2021/10/11 11:55:29;;;;;;;22.70;12.77;;;14.20;99.90;;;;;;5013088;28;20498;-80
2021/10/11 11:57:57;;;;;;;20.73;14.17;;;14.30;99.90;;;;;;5018431;28;20456;-80
2021/10/11 12:00:25;;;;;;;25.20;16.37;;;14.20;99.90;;;;;;5018150;28;20443;-79
2021/10/11 12:02:54;;;;;;;18.70;13.83;;;14.20;99.90;;;;;;5019484;28;20781;-80
2021/10/11 12:05:23;;;;;;;22.60;18.53;;;14.30;99.90;;;;;;5018939;28;20448;-80
2021/10/11 12:07:50;;;;;;;21.77;15.30;;;14.50;99.90;;;;;;5020401;28;20805;-81
2021/10/11 12:10:22;;;;;;;21.80;15.33;;;14.70;99.90;;;;;;5018127;28;20462;-80
2021/10/11 12:12:58;;;;;;;20.27;14.67;;;14.80;99.90;;;;;;5019559;28;20461;-80
2021/10/11 12:15:25;;;;;;;20.73;16.30;;;14.60;99.90;;;;;;5020729;28;20604;-80
2021/10/11 12:18:03;;;;;;;18.93;14.40;;;14.40;99.90;;;;;;5019283;28;20536;-80
2021/10/11 12:20:40;;;;;;;23.40;16.30;;;14.30;99.90;;;;;;5020924;28;20767;-81
2021/10/11 12:23:07;;;;;;;25.50;13.43;;;14.30;99.90;;;;;;5019086;28;20449;-80
2021/10/11 12:25:36;;;;;;;20.20;15.97;;;14.50;99.90;;;;;;5016261;28;21023;-79
2021/10/11 12:28:13;;;;;;;18.67;14.20;;;14.40;99.90;;;;;;5018537;28;20429;-81
2021/10/11 12:30:40;;;;;;;18.13;14.40;;;14.50;99.90;;;;;;5017822;28;20922;-82
2021/10/11 12:33:13;;;;;;;20.23;14.70;;;14.60;99.90;;;;;;5018330;28;20510;-80
2021/10/11 12:35:40;;;;;;;19.87;16.33;;;14.60;99.90;;;;;;5018566;28;20485;-80